createdAt,value
2016-03-12T14:25:54.591Z,62.94
2016-03-12T14:26:54.736Z,62.66
2016-03-12T14:27:54.756Z,62.75
2016-03-12T14:28:54.716Z,62.46
2016-03-12T14:29:54.714Z,62.18
2016-03-12T14:30:54.712Z,62.08
2016-03-12T14:31:54.757Z,62.46
2016-03-12T14:32:54.723Z,63.04
2016-03-12T14:33:54.738Z,62.94
2016-03-12T14:34:54.785Z,63.04
2016-03-12T14:35:53.990Z,62.18
2016-03-12T14:36:54.771Z,61.8
2016-03-12T14:37:54.756Z,62.18
2016-03-12T14:38:54.758Z,61.74
2016-03-12T14:39:54.791Z,62.4
2016-03-12T14:40:54.792Z,61.74
2016-03-12T14:41:54.841Z,61.83
2016-03-12T14:42:54.812Z,61.74
2016-03-12T14:43:54.814Z,60.98
2016-03-12T14:44:54.833Z,61.36
2016-03-12T14:45:54.851Z,60.6
2016-03-12T14:46:54.853Z,60.13
2016-03-12T14:47:54.887Z,60.13
2016-03-12T14:48:54.920Z,60.5
2016-03-12T14:49:54.892Z,60.22
2016-03-12T14:50:54.895Z,60.16
2016-03-12T14:51:54.929Z,60.16
2016-03-12T14:52:54.931Z,60.53
2016-03-12T14:53:54.949Z,60.25
2016-03-12T14:54:54.952Z,58.44
2016-03-12T14:55:54.970Z,59.87
2016-03-12T14:56:54.973Z,59.3
2016-03-12T14:57:54.976Z,59.49
2016-03-12T14:58:55.009Z,57.02
2016-03-12T14:59:55.012Z,57.3
2016-03-12T15:00:55.047Z,57.02
2016-03-12T15:01:55.049Z,56.83
2016-03-12T15:02:55.066Z,56.83
2016-03-12T15:03:55.054Z,56.76
2016-03-12T15:04:55.103Z,56.1
2016-03-12T15:05:55.091Z,55.52
2016-03-12T15:06:55.108Z,55.62
2016-03-12T15:07:55.112Z,55.52
2016-03-12T15:08:55.146Z,55.62
2016-03-12T15:09:55.163Z,55.52
2016-03-12T15:10:55.166Z,55.43
2016-03-12T15:11:55.201Z,55.71
2016-03-12T15:12:55.188Z,55.05
2016-03-12T15:13:55.206Z,55.05
2016-03-12T15:14:55.224Z,55.43
2016-03-12T15:15:55.227Z,55.52
2016-03-12T15:16:55.245Z,55.43
2016-03-12T15:17:55.249Z,55.43
2016-03-12T15:18:55.282Z,55.43
2016-03-12T15:19:55.285Z,55.52
2016-03-12T15:20:55.303Z,54.86
2016-03-12T15:21:55.321Z,54.19
2016-03-12T15:22:55.324Z,55.15
2016-03-12T15:23:55.358Z,55.08
2016-03-12T15:24:55.517Z,54.22
2016-03-12T15:25:55.378Z,54.32
2016-03-12T15:26:55.382Z,54.03
2016-03-12T15:27:55.400Z,53.75
2016-03-12T15:28:55.403Z,54.13
2016-03-12T15:29:55.421Z,53.27
2016-03-12T15:30:55.439Z,52.8
2016-03-12T15:31:55.442Z,54.03
2016-03-12T15:32:55.475Z,55.27
2016-03-12T15:33:55.463Z,54.79
2016-03-12T15:34:55.497Z,53.65
2016-03-12T15:35:55.500Z,53.08
2016-03-12T15:36:55.533Z,54.32
2016-03-12T15:37:55.536Z,53.08
2016-03-12T15:38:55.539Z,53.65
2016-03-12T15:39:55.557Z,54.22
2016-03-12T15:40:55.591Z,54.79
2016-03-12T15:41:55.578Z,54.69
2016-03-12T15:42:55.596Z,54.41
2016-03-12T15:43:55.615Z,55.08
2016-03-12T15:44:55.633Z,54.79
2016-03-12T15:45:55.652Z,54.89
2016-03-12T15:46:55.654Z,55.27
2016-03-12T15:47:55.673Z,54.67
2016-03-12T15:48:55.691Z,55.71
2016-03-12T15:49:55.693Z,55.62
2016-03-12T15:50:55.712Z,55.24
2016-03-12T15:51:55.729Z,55.62
2016-03-12T15:52:55.749Z,55.52
2016-03-12T15:53:55.751Z,55.62
2016-03-12T15:54:55.770Z,55.52
2016-03-12T15:55:55.773Z,55.05
2016-03-12T15:56:55.806Z,56.67
2016-03-12T15:57:55.809Z,56.85
2016-03-12T15:58:55.811Z,58
2016-03-12T15:59:55.830Z,57.14
2016-03-12T16:00:55.879Z,56.29
2016-03-12T16:01:55.882Z,55.52
2016-03-12T16:02:55.884Z,57.04
2016-03-12T16:03:55.887Z,57.14
2016-03-12T16:04:55.906Z,55.9
2016-03-12T16:05:55.924Z,55.81
2016-03-12T16:06:55.942Z,55.62
2016-03-12T16:07:55.961Z,55.9
2016-03-12T16:08:55.979Z,56.1
2016-03-12T16:09:55.966Z,55.62
2016-03-12T16:10:55.985Z,55.81
2016-03-12T16:11:56.002Z,56.67
2016-03-12T16:12:56.005Z,56.48
2016-03-12T16:13:56.038Z,55.9
2016-03-12T16:14:56.074Z,56.48
2016-03-12T16:15:56.076Z,56.95
2016-03-12T16:16:56.079Z,57.04
2016-03-12T16:17:56.082Z,56.19
2016-03-12T16:18:56.099Z,57.24
2016-03-12T16:19:56.118Z,56.19
2016-03-12T16:20:56.137Z,55.62
2016-03-12T16:21:56.123Z,55.43
2016-03-12T16:22:56.157Z,55.05
2016-03-12T16:23:56.160Z,55.52
2016-03-12T16:24:56.210Z,55.71
2016-03-12T16:25:56.181Z,56.48
2016-03-12T16:26:56.199Z,57.24
2016-03-12T16:27:56.217Z,57.9
2016-03-12T16:28:56.237Z,56
2016-03-12T16:29:56.254Z,56.48
2016-03-12T16:30:56.256Z,56.67
2016-03-12T16:31:56.275Z,57.14
2016-03-12T16:32:56.294Z,56.85
2016-03-12T16:33:56.297Z,56.26
2016-03-12T16:34:56.330Z,56.92
2016-03-12T16:35:56.333Z,57.11
2016-03-12T16:36:56.367Z,57.3
2016-03-12T16:37:56.354Z,57.59
2016-03-12T16:38:56.372Z,57.11
2016-03-12T16:39:56.375Z,57.11
2016-03-12T16:40:56.393Z,57.4
2016-03-12T16:41:56.412Z,57.21
2016-03-12T16:42:56.414Z,57.87
2016-03-12T16:43:56.433Z,58.66
2016-03-12T16:44:56.435Z,57.9
2016-03-12T16:45:56.469Z,56.92
2016-03-12T16:46:56.472Z,57.3
2016-03-12T16:47:56.474Z,57.97
2016-03-12T16:48:56.508Z,58.06
2016-03-12T16:49:56.527Z,57.3
2016-03-12T16:50:56.608Z,57.97
2016-03-12T16:51:56.532Z,57.3
2016-03-12T16:52:56.550Z,57.59
2016-03-12T16:53:56.554Z,57.68
2016-03-12T16:54:56.587Z,57.59
2016-03-12T16:55:56.605Z,58.06
2016-03-12T16:56:56.609Z,58.63
2016-03-12T16:57:56.626Z,58.73
2016-03-12T16:58:56.645Z,58.92
2016-03-12T16:59:56.648Z,59.11
2016-03-12T17:00:56.650Z,59.2
2016-03-12T17:01:56.684Z,59.11
2016-03-12T17:02:56.687Z,59.01
2016-03-12T17:03:56.689Z,59.3
2016-03-12T17:04:56.723Z,59.39
2016-03-12T17:05:56.726Z,59.87
2016-03-12T17:06:56.728Z,59.01
2016-03-12T17:07:56.748Z,58.83
2016-03-12T17:08:56.766Z,58.83
2016-03-12T17:09:56.768Z,59.11
2016-03-12T17:10:56.771Z,59.39
2016-03-12T17:11:56.883Z,59.39
2016-03-12T17:12:56.869Z,59.01
2016-03-12T17:13:56.810Z,59.11
2016-03-12T17:14:56.828Z,59.3
2016-03-12T17:15:56.847Z,58.83
2016-03-12T17:16:56.866Z,58.73
2016-03-12T17:17:56.868Z,59.3
2016-03-12T17:18:56.886Z,59.39
2016-03-12T17:19:56.921Z,59.2
2016-03-12T17:20:56.907Z,59.77
2016-03-12T17:21:56.925Z,59.3
2016-03-12T17:22:56.944Z,59.3
2016-03-12T17:23:56.962Z,59.77
2016-03-12T17:24:56.980Z,59.74
2016-03-12T17:25:56.968Z,60.35
2016-03-12T17:26:57.017Z,59.3
2016-03-12T17:27:56.988Z,59.39
2016-03-12T17:28:57.007Z,59.11
2016-03-12T17:29:57.072Z,59.68
2016-03-12T17:30:57.042Z,59.68
2016-03-12T17:31:57.031Z,58.83
2016-03-12T17:32:57.064Z,58.63
2016-03-12T17:33:57.067Z,58.92
2016-03-12T17:34:57.117Z,58.54
2016-03-12T17:35:57.119Z,58.35
2016-03-12T17:36:57.106Z,59.39
2016-03-12T17:37:57.140Z,58.83
2016-03-12T17:38:57.142Z,59.2
2016-03-12T17:39:57.177Z,58.73
2016-03-12T17:40:57.164Z,59.2
2016-03-12T17:41:57.182Z,59.68
2016-03-12T17:42:57.201Z,59.55
2016-03-12T17:43:57.203Z,60.22
2016-03-12T17:44:57.205Z,60.22
2016-03-12T17:45:57.241Z,60.03
2016-03-12T17:46:57.243Z,60.41
2016-03-12T17:47:57.260Z,60.6
2016-03-12T17:48:57.280Z,60.13
2016-03-12T17:49:57.297Z,59.74
2016-03-12T17:50:57.300Z,59.93
2016-03-12T17:51:57.303Z,60.03
2016-03-12T17:52:57.305Z,60.31
2016-03-12T17:53:57.323Z,60.22
2016-03-12T17:54:57.202Z,59.74
2016-03-12T17:55:57.407Z,60.6
2016-03-12T17:56:57.362Z,60.22
2016-03-12T17:57:57.382Z,60.22
2016-03-12T17:58:57.400Z,60.22
2016-03-12T17:59:57.403Z,59.93
2016-03-12T18:00:57.437Z,59.65
2016-03-12T18:01:57.423Z,60.41
2016-03-12T18:02:57.473Z,60.6
2016-03-12T18:03:57.460Z,60.5
2016-03-12T18:04:57.462Z,60.5
2016-03-12T18:05:57.481Z,60.31
2016-03-12T18:06:57.484Z,59.65
2016-03-12T18:07:57.502Z,60.22
2016-03-12T18:08:57.506Z,60.69
2016-03-12T18:09:57.601Z,61.17
2016-03-12T18:10:57.541Z,60.98
2016-03-12T18:11:57.560Z,61.45
2016-03-12T18:12:57.578Z,61.45
2016-03-12T18:13:57.580Z,61.65
2016-03-12T18:14:57.599Z,60.6
2016-03-12T18:15:57.602Z,60.69
2016-03-12T18:16:57.620Z,61.83
2016-03-12T18:17:57.638Z,61.45
2016-03-12T18:18:57.641Z,61.65
2016-03-12T18:19:57.660Z,61.74
2016-03-12T18:20:57.694Z,62.12
2016-03-12T18:21:57.696Z,61.74
2016-03-12T18:22:57.683Z,62.02
2016-03-12T18:23:57.701Z,62.12
2016-03-12T18:24:57.735Z,63.17
2016-03-12T18:25:57.723Z,62.88
2016-03-12T18:26:57.741Z,62.78
2016-03-12T18:27:57.587Z,62.97
2016-03-12T18:28:57.762Z,62.12
2016-03-12T18:29:57.764Z,62.94
2016-03-12T18:30:57.800Z,63.79
2016-03-12T18:31:57.803Z,63.89
2016-03-12T18:32:57.806Z,63.7
2016-03-12T18:33:57.824Z,64.75
2016-03-12T18:34:57.842Z,64.08
2016-03-12T18:35:57.861Z,63.04
2016-03-12T18:36:57.880Z,64.56
2016-03-12T18:37:57.882Z,63.89
2016-03-12T18:38:57.899Z,64.37
2016-03-12T18:39:57.903Z,64.27
2016-03-12T18:40:57.921Z,64.94
2016-03-12T18:41:57.924Z,64.08
2016-03-12T18:42:57.942Z,64.08
2016-03-12T18:43:57.944Z,64.46
2016-03-12T18:44:57.979Z,64.84
2016-03-12T18:45:58.013Z,63.89
2016-03-12T18:46:57.999Z,63.89
2016-03-12T18:47:58.002Z,64.17
2016-03-12T18:48:58.021Z,63.51
2016-03-12T18:49:58.023Z,64.46
2016-03-12T18:50:58.027Z,64.37
2016-03-12T18:51:58.045Z,63.6
2016-03-12T18:52:58.079Z,63.89
2016-03-12T18:53:58.081Z,64.37
2016-03-12T18:54:58.084Z,64.46
2016-03-12T18:55:58.102Z,64.56
2016-03-12T18:56:58.105Z,64.37
2016-03-12T18:57:58.107Z,64.65
2016-03-12T18:58:57.969Z,64.84
2016-03-12T18:59:58.159Z,65.03
2016-03-12T19:00:58.147Z,65.69
2016-03-12T19:01:58.165Z,65.6
2016-03-12T19:02:58.168Z,64.84
2016-03-12T19:03:58.186Z,64.94
2016-03-12T19:04:58.205Z,65.5
2016-03-12T19:05:58.207Z,64.65
2016-03-12T19:06:58.225Z,64.46
2016-03-12T19:07:58.244Z,65.6
2016-03-12T19:08:58.247Z,64.17
2016-03-12T19:09:58.264Z,64.37
2016-03-12T19:10:58.267Z,65.22
2016-03-12T19:11:58.286Z,65.6
2016-03-12T19:12:58.320Z,66.08
2016-03-12T19:13:58.307Z,65.03
2016-03-12T19:14:58.325Z,65.69
2016-03-12T19:15:58.328Z,65.79
2016-03-12T19:16:58.347Z,65.03
2016-03-12T19:17:58.380Z,65.88
2016-03-12T19:18:58.368Z,66.08
2016-03-12T19:19:58.385Z,65.6
2016-03-12T19:20:58.388Z,65.31
2016-03-12T19:21:58.437Z,65.6
2016-03-12T19:22:58.424Z,66.83
2016-03-12T19:23:58.427Z,65.5
2016-03-12T19:24:58.430Z,65.41
2016-03-12T19:25:58.465Z,65.22
2016-03-12T19:26:58.467Z,65.69
2016-03-12T19:27:58.485Z,65.75
2016-03-12T19:28:58.488Z,66.52
2016-03-12T19:29:58.522Z,65.98
2016-03-12T19:30:58.509Z,66.61
2016-03-12T19:31:58.543Z,66.46
2016-03-12T19:32:58.545Z,66.27
2016-03-12T19:33:58.533Z,66.27
2016-03-12T19:34:58.567Z,65.88
2016-03-12T19:35:58.584Z,66.64
2016-03-12T19:36:58.572Z,65.98
2016-03-12T19:37:58.590Z,66.64
2016-03-12T19:38:58.608Z,67.12
2016-03-12T19:39:58.627Z,67.21
2016-03-12T19:40:58.630Z,65.5
2016-03-12T19:41:58.647Z,66.04
2016-03-12T19:42:58.650Z,66.74
2016-03-12T19:43:58.669Z,66.46
2016-03-12T19:44:58.672Z,65.88
2016-03-12T19:46:00.361Z,66.36
2016-03-12T19:46:58.693Z,65.41
2016-03-12T19:47:58.711Z,65.31
2016-03-12T19:48:58.729Z,66.14
2016-03-12T19:49:58.763Z,66.42
2016-03-12T19:50:58.750Z,65.6
2016-03-12T19:51:58.752Z,66.27
2016-03-12T19:52:58.771Z,65.69
2016-03-12T19:53:58.774Z,66.17
2016-03-12T19:54:58.792Z,66.42
2016-03-12T19:55:58.811Z,66.04
2016-03-12T19:56:58.830Z,66.52
2016-03-12T19:57:58.848Z,67.4
2016-03-12T19:58:58.835Z,66.74
2016-03-12T19:59:58.853Z,65.5
2016-03-12T20:00:58.856Z,65.41
2016-03-12T20:01:58.889Z,65.85
2016-03-12T20:02:58.876Z,67.31
2016-03-12T20:03:58.910Z,66.64
2016-03-12T20:04:58.898Z,65.88
2016-03-12T20:05:58.921Z,66.23
2016-03-12T20:06:58.939Z,65.85
2016-03-12T20:07:58.942Z,65.85
2016-03-12T20:08:58.961Z,66.23
2016-03-12T20:09:58.963Z,65.85
2016-03-12T20:10:58.981Z,66.42
2016-03-12T20:11:58.999Z,66.8
2016-03-12T20:12:59.017Z,66.42
2016-03-12T20:13:59.005Z,66.61
2016-03-12T20:14:59.023Z,66.23
2016-03-12T20:15:59.026Z,66.23
2016-03-12T20:16:59.060Z,66.33
2016-03-12T20:17:59.063Z,66.8
2016-03-12T20:18:59.080Z,66.99
2016-03-12T20:19:59.083Z,65.95
2016-03-12T20:20:59.101Z,66.42
2016-03-12T20:21:59.105Z,66.61
2016-03-12T20:22:59.107Z,66.8
2016-03-12T20:23:59.141Z,66.89
2016-03-12T20:24:59.129Z,67.37
2016-03-12T20:25:59.147Z,67.27
2016-03-12T20:26:59.165Z,67.08
2016-03-12T20:27:59.168Z,66.52
2016-03-12T20:28:59.185Z,66.99
2016-03-12T20:29:59.204Z,66.99
2016-03-12T20:30:59.222Z,67.08
2016-03-12T20:31:59.240Z,66.71
2016-03-12T20:32:59.243Z,66.52
2016-03-12T20:33:59.245Z,66.89
2016-03-12T20:34:59.264Z,66.71
2016-03-12T20:35:59.267Z,66.52
2016-03-12T20:36:59.286Z,66.42
2016-03-12T20:37:59.288Z,67.27
2016-03-12T20:38:59.306Z,67.27
2016-03-12T20:39:59.308Z,67.56
2016-03-12T20:40:59.312Z,67.37
2016-03-12T20:41:59.346Z,67.08
2016-03-12T20:42:59.348Z,67.65
2016-03-12T20:43:59.367Z,67.18
2016-03-12T20:44:59.369Z,67.18
2016-03-12T20:45:59.388Z,67.27
2016-03-12T20:46:59.390Z,67.65
2016-03-12T20:47:59.424Z,67.46
2016-03-12T20:48:59.411Z,66.99
2016-03-12T20:49:59.429Z,67.08
2016-03-12T20:50:59.432Z,66.8
2016-03-12T20:51:59.452Z,66.71
2016-03-12T20:52:59.469Z,66.61
2016-03-12T20:53:59.472Z,66.89
2016-03-12T20:54:59.474Z,67.65
2016-03-12T20:55:59.493Z,67.85
2016-03-12T20:56:59.495Z,67.46
2016-03-12T20:57:59.513Z,67.46
2016-03-12T20:58:59.532Z,67.08
2016-03-12T20:59:59.551Z,67.56
2016-03-12T21:00:59.569Z,66.99
2016-03-12T21:01:59.571Z,67.27
2016-03-12T21:02:59.574Z,66.89
2016-03-12T21:03:59.576Z,66.99
2016-03-12T21:04:59.595Z,67.46
2016-03-12T21:05:59.614Z,67.27
2016-03-12T21:06:59.631Z,67.46
2016-03-12T21:07:59.635Z,67.08
2016-03-12T21:08:59.637Z,66.71
2016-03-12T21:09:59.655Z,66.71
2016-03-12T21:10:59.674Z,66.61
2016-03-12T21:11:59.676Z,67.37
2016-03-12T21:12:59.711Z,67.94
2016-03-12T21:13:59.697Z,67.46
2016-03-12T21:14:59.731Z,66.89
2016-03-12T21:15:59.719Z,67.65
2016-03-12T21:16:59.736Z,67.27
2016-03-12T21:17:59.755Z,67.37
2016-03-12T21:18:59.774Z,67.27
2016-03-12T21:19:59.777Z,66.61
2016-03-12T21:20:59.779Z,66.99
2016-03-12T21:21:59.813Z,67.18
2016-03-12T21:22:59.800Z,67.27
2016-03-12T21:23:59.818Z,66.99
2016-03-12T21:24:59.836Z,66.99
2016-03-12T21:25:59.838Z,67.37
2016-03-12T21:26:59.858Z,67.27
2016-03-12T21:27:59.860Z,67.18
2016-03-12T21:28:59.879Z,67.75
2016-03-12T21:29:59.896Z,68.23
2016-03-12T21:30:59.884Z,67.27
2016-03-12T21:31:59.918Z,67.27
2016-03-12T21:32:59.921Z,68.04
2016-03-12T21:33:59.923Z,68.04
2016-03-12T21:34:59.942Z,67.56
2016-03-12T21:35:59.944Z,66.99
2016-03-12T21:36:59.962Z,66.89
2016-03-12T21:37:59.965Z,67.27
2016-03-12T21:38:59.984Z,67.65
2016-03-12T21:39:59.986Z,67.56
2016-03-12T21:41:00.004Z,67.37
2016-03-12T21:42:00.023Z,67.46
2016-03-12T21:43:00.025Z,68.23
2016-03-12T21:44:00.044Z,68.13
2016-03-12T21:45:00.047Z,67.85
2016-03-12T21:46:00.065Z,68.23
2016-03-12T21:47:00.083Z,68.23
2016-03-12T21:48:00.086Z,67.65
2016-03-12T21:49:00.089Z,67.18
2016-03-12T21:50:00.122Z,67.27
2016-03-12T21:51:00.141Z,67.46
2016-03-12T21:52:00.128Z,67.27
2016-03-12T21:53:00.177Z,67.08
2016-03-12T21:54:00.149Z,67.75
2016-03-12T21:55:00.166Z,67.27
2016-03-12T21:56:00.185Z,67.46
2016-03-12T21:57:00.204Z,67.65
2016-03-12T21:58:00.207Z,68.41
2016-03-12T21:59:00.210Z,68.04
2016-03-12T22:00:00.212Z,67.75
2016-03-12T22:01:00.230Z,68.04
2016-03-12T22:02:00.232Z,68.32
2016-03-12T22:03:00.251Z,68.32
2016-03-12T22:04:00.269Z,67.94
2016-03-12T22:05:00.273Z,68.13
2016-03-12T22:06:00.307Z,68.7
2016-03-12T22:07:00.314Z,69.46
2016-03-12T22:08:00.317Z,68.23
2016-03-12T22:09:00.320Z,68.51
2016-03-12T22:10:00.337Z,68.6
2016-03-12T22:11:00.340Z,68.6
2016-03-12T22:12:00.358Z,68.51
2016-03-12T22:13:00.377Z,68.51
2016-03-12T22:14:00.394Z,68.51
2016-03-12T22:15:00.398Z,68.32
2016-03-12T22:16:00.416Z,68.23
2016-03-12T22:17:00.419Z,68.41
2016-03-12T22:18:00.422Z,69.08
2016-03-12T22:19:00.455Z,68.04
2016-03-12T22:20:00.442Z,68.41
2016-03-12T22:21:00.507Z,68.41
2016-03-12T22:22:00.479Z,68.32
2016-03-12T22:23:00.466Z,68.32
2016-03-12T22:24:00.500Z,69.17
2016-03-12T22:25:00.502Z,69.27
2016-03-12T22:26:00.552Z,69.74
2016-03-12T22:27:00.524Z,68.51
2016-03-12T22:28:00.543Z,69.27
2016-03-12T22:29:00.545Z,69.55
2016-03-12T22:30:00.563Z,69.17
2016-03-12T22:31:00.566Z,69.27
2016-03-12T22:32:00.584Z,69.65
2016-03-12T22:33:00.617Z,69.55
2016-03-12T22:34:00.621Z,69.55
2016-03-12T22:35:00.624Z,69.93
2016-03-12T22:36:00.626Z,69.65
2016-03-12T22:37:00.645Z,69.17
2016-03-12T22:38:00.662Z,68.41
2016-03-12T22:39:00.681Z,68.13
2016-03-12T22:40:00.699Z,68.32
2016-03-12T22:41:00.702Z,69.36
2016-03-12T22:42:00.705Z,68.32
2016-03-12T22:43:00.707Z,69.27
2016-03-12T22:44:00.710Z,69.17
2016-03-12T22:45:00.729Z,69.93
2016-03-12T22:46:00.731Z,69.65
2016-03-12T22:47:00.750Z,68.51
2016-03-12T22:48:00.767Z,69.36
2016-03-12T22:49:00.614Z,69.46
2016-03-12T22:50:00.788Z,69.55
2016-03-12T22:51:00.807Z,70.21
2016-03-12T22:52:00.810Z,69.74
2016-03-12T22:53:00.813Z,68.41
2016-03-12T22:54:00.878Z,68.79
2016-03-12T22:55:00.833Z,67.56
2016-03-12T22:56:00.696Z,68.04
2016-03-12T22:57:00.870Z,68.7
2016-03-12T22:58:00.888Z,68.04
2016-03-12T22:59:00.890Z,68.32
2016-03-12T23:00:00.893Z,68.6
2016-03-12T23:01:00.928Z,69.08
2016-03-12T23:02:00.930Z,68.89
2016-03-12T23:03:00.933Z,69.27
2016-03-12T23:04:00.935Z,69.74
2016-03-12T23:05:00.954Z,70.31
2016-03-12T23:06:00.973Z,70.21
2016-03-12T23:07:00.976Z,69.46
2016-03-12T23:08:01.009Z,69.93
2016-03-12T23:09:01.028Z,69.17
2016-03-12T23:10:01.014Z,68.32
2016-03-12T23:11:01.017Z,68.51
2016-03-12T23:12:01.036Z,68.23
2016-03-12T23:13:01.053Z,68.6
2016-03-12T23:14:01.056Z,68.6
2016-03-12T23:15:01.075Z,68.6
2016-03-12T23:16:01.077Z,68.41
2016-03-12T23:17:01.095Z,68.89
2016-03-12T23:18:01.098Z,69.08
2016-03-12T23:19:01.100Z,68.32
2016-03-12T23:20:01.135Z,68.51
2016-03-12T23:21:01.138Z,68.51
2016-03-12T23:22:01.156Z,69.08
2016-03-12T23:23:01.159Z,69.46
2016-03-12T23:24:01.177Z,69.93
2016-03-12T23:25:01.180Z,69.55
2016-03-12T23:26:01.183Z,69.36
2016-03-12T23:27:01.201Z,68.98
2016-03-12T23:28:01.203Z,69.46
2016-03-12T23:29:01.237Z,69.93
2016-03-12T23:30:01.231Z,69.65
2016-03-12T23:31:01.238Z,68.41
2016-03-12T23:32:01.231Z,68.41
2016-03-12T23:33:01.224Z,69.08
2016-03-12T23:34:01.249Z,68.51
2016-03-12T23:35:01.231Z,68.23
2016-03-12T23:36:01.246Z,68.41
2016-03-12T23:37:01.259Z,69.08
2016-03-12T23:38:01.274Z,68.23
2016-03-12T23:39:01.273Z,69.08
2016-03-12T23:40:01.275Z,68.41
2016-03-12T23:41:01.276Z,68.41
2016-03-12T23:42:01.294Z,69.08
2016-03-12T23:43:01.296Z,69.55
2016-03-12T23:44:01.328Z,69.27
2016-03-12T23:45:01.314Z,69.08
2016-03-12T23:46:01.333Z,69.27
2016-03-12T23:47:01.350Z,70.21
2016-03-12T23:48:01.368Z,69.08
2016-03-12T23:49:01.370Z,69.08
2016-03-12T23:50:01.389Z,69.08
2016-03-12T23:51:01.422Z,68.32
2016-03-12T23:52:01.409Z,68.98
2016-03-12T23:53:01.411Z,68.23
2016-03-12T23:54:01.429Z,68.41
2016-03-12T23:55:01.432Z,68.41
2016-03-12T23:56:01.450Z,69.46
2016-03-12T23:57:01.453Z,69.27
2016-03-12T23:58:01.596Z,69.55
2016-03-12T23:59:01.489Z,69.74
